N4026B EGLP-EGLP

Flight info

Callsign N4026B
Flight time N/A
Altitude 1000
Route VFR
Aircraft BL17/L-VGDW/C

Departure

Time 2025-06-22 13:17
Airport Brimpton Airfield (EGLP)

Arrival

Time N/A
Airport Brimpton Airfield (EGLP)
Time Latitude Longitude Altitude Speed Heading
2025-06-22 13:10 51.38347 -1.17066 204 ft 0 kts 309°
2025-06-22 13:14 51.38335 -1.17124 209 ft 5 kts 244°
2025-06-22 13:14 51.38283 -1.17311 199 ft 25 kts 249°
2025-06-22 13:15 51.38212 -1.17611 218 ft 2 kts 306°
2025-06-22 13:15 51.38282 -1.17427 202 ft 54 kts 63°
2025-06-22 13:16 51.38281 -1.15652 401 ft 93 kts 166°
2025-06-22 13:17 51.36317 -1.16872 1270 ft 126 kts 208°
2025-06-22 13:17 51.35400 -1.17536 1186 ft 158 kts 208°
2025-06-22 13:17 51.33261 -1.19140 1177 ft 179 kts 208°
2025-06-22 13:18 51.30809 -1.20096 1206 ft 189 kts 185°
2025-06-22 13:18 51.28170 -1.19688 1193 ft 194 kts 179°
2025-06-22 13:19 51.24114 -1.19299 1211 ft 194 kts 185°
2025-06-22 13:19 51.22738 -1.19297 1021 ft 200 kts 185°
2025-06-22 13:20 51.19158 -1.19221 1003 ft 144 kts 186°
2025-06-22 13:20 51.18174 -1.19208 991 ft 139 kts 184°
2025-06-22 13:21 51.16298 -1.19175 984 ft 128 kts 187°
2025-06-22 13:21 51.14570 -1.19149 990 ft 124 kts 185°
2025-06-22 13:22 51.12763 -1.19114 989 ft 133 kts 184°
2025-06-22 13:22 51.10946 -1.19078 1011 ft 130 kts 185°
2025-06-22 13:23 51.08376 -1.19022 1011 ft 115 kts 188°
2025-06-22 13:23 51.07616 -1.19004 1014 ft 104 kts 186°
2025-06-22 13:24 51.06125 -1.18985 1014 ft 108 kts 187°
2025-06-22 13:24 51.04600 -1.18957 1019 ft 112 kts 186°
2025-06-22 13:25 51.03065 -1.18927 1024 ft 105 kts 187°
2025-06-22 13:25 51.01673 -1.18901 1034 ft 97 kts 189°
2025-06-22 13:26 51.00194 -1.18885 1033 ft 113 kts 188°
2025-06-22 13:26 50.98592 -1.18848 1036 ft 111 kts 189°
2025-06-22 13:27 50.96231 -1.18808 1034 ft 116 kts 187°
2025-06-22 13:27 50.95423 -1.18789 1035 ft 116 kts 187°
2025-06-22 13:28 50.93805 -1.18683 1038 ft 117 kts 186°
2025-06-22 13:28 50.91937 -1.18610 1052 ft 161 kts 187°
2025-06-22 13:29 50.89509 -1.18695 1054 ft 184 kts 188°
2025-06-22 13:29 50.86907 -1.18858 1040 ft 192 kts 187°
2025-06-22 13:30 50.84217 -1.18929 1048 ft 195 kts 186°
2025-06-22 13:30 50.81486 -1.18988 1045 ft 196 kts 186°
2025-06-22 13:31 50.77613 -1.18359 1040 ft 166 kts 171°
2025-06-22 13:31 50.76612 -1.17605 1023 ft 161 kts 153°
2025-06-22 13:32 50.75286 -1.14805 1024 ft 157 kts 131°
2025-06-22 13:32 50.74021 -1.12131 1027 ft 146 kts 149°
2025-06-22 13:33 50.72468 -1.10127 1027 ft 143 kts 150°
2025-06-22 13:33 50.70876 -1.08479 1027 ft 130 kts 178°
2025-06-22 13:34 50.69260 -1.08707 1031 ft 112 kts 218°
2025-06-22 13:34 50.67971 -1.10135 1034 ft 112 kts 220°
2025-06-22 13:35 50.67315 -1.12157 999 ft 95 kts 250°
2025-06-22 13:35 50.66907 -1.14340 1003 ft 119 kts 251°
2025-06-22 13:36 50.66120 -1.16830 1010 ft 136 kts 232°
2025-06-22 13:36 50.64870 -1.19052 1010 ft 130 kts 230°
2025-06-22 13:37 50.64956 -1.21357 972 ft 141 kts 324°
2025-06-22 13:37 50.66979 -1.20101 561 ft 172 kts 49°
2025-06-22 13:38 50.68244 -1.17750 576 ft 169 kts 51°
2025-06-22 13:38 50.69497 -1.14834 567 ft 157 kts 89°
2025-06-22 13:39 50.68226 -1.14057 562 ft 78 kts 205°
2025-06-22 13:39 50.67752 -1.14362 558 ft 70 kts 223°
2025-06-22 13:40 50.67089 -1.15424 474 ft 74 kts 223°
2025-06-22 13:40 50.66397 -1.16492 306 ft 72 kts 226°
2025-06-22 13:41 50.65758 -1.17483 127 ft 65 kts 225°
2025-06-22 13:41 50.65357 -1.18114 51 ft 14 kts 224°
2025-06-22 13:42 50.65150 -1.18339 47 ft 16 kts 220°
2025-06-22 13:42 50.64998 -1.18578 46 ft 17 kts 224°